Weather reports worldwide

Advertisment
Malaga,Cmt, Spain (8481): temperature & dewpoint: 06.12.2018 00:00:00 - 12.12.2018 00:00:00 (CET)Malaga,Cmt, Spain (8481): wind speed & gusts: 06.12.2018 00:00:00 - 12.12.2018 00:00:00 (CET)Malaga,Cmt, Spain (8481): wind direction: 06.12.2018 00:00:00 - 12.12.2018 00:00:00 (CET)Malaga,Cmt, Spain (8481): reduced air pressure: 06.12.2018 00:00:00 - 12.12.2018 00:00:00 (CET)Malaga,Cmt, Spain (8481): precipitation: 06.12.2018 00:00:00 - 12.12.2018 00:00:00 (CET)
Date & Time tt [°C] td [°C] ff [km/h] ff [kn] fx [km/h] fx [kn] dd ppp [hPa] rr [mm]
12.12.2018 00:00:00 14,4 9,2 4 2 15 8 WNW 1024,2 0,0
11.12.2018 23:00:00 14,7 9,3 7 4 15 8 WNW 1024,5 0,0
11.12.2018 22:00:00 15,3 9,2 9 5 15 8 WNW 1024,2 0,0
11.12.2018 21:00:00 15,0 8,5 3 1 16 9 WNW 1024,1 0,0
11.12.2018 20:00:00 15,9 8,4 8 4 18 10 WNW 1024,0 0,0
11.12.2018 19:00:00 16,4 8,7 9 5 14 8 W 1023,6 -
11.12.2018 18:00:00 17,4 9,0 5 3 18 10 NW 1023,1 0,0
11.12.2018 17:00:00 18,2 10,0 13 7 18 10 W 1023,2 0,0
11.12.2018 16:00:00 18,8 10,4 10 6 19 10 W 1023,3 0,0
11.12.2018 15:00:00 19,5 11,0 11 6 20 11 W 1023,6 0,0
11.12.2018 14:00:00 18,4 11,4 4 2 13 7 WNW 1024,8 0,0
11.12.2018 13:00:00 15,4 12,0 8 4 12 6 W 1026,5 -
11.12.2018 12:00:00 14,4 11,6 8 4 10 6 W 1027,3 0,0
11.12.2018 11:00:00 13,9 11,2 6 3 9 5 W 1027,4 0,0
11.12.2018 10:00:00 13,2 10,8 4 2 11 6 NNW 1027,0 0,0
11.12.2018 09:00:00 12,4 10,2 4 2 11 6 W 1026,5 0,0
11.12.2018 08:00:00 11,4 9,4 6 3 10 6 W 1026,5 0,0
11.12.2018 07:00:00 10,6 8,7 4 2 11 6 W 1026,3 -
11.12.2018 06:00:00 10,8 8,9 7 4 10 5 WSW 1026,3 0,0
11.12.2018 05:00:00 10,2 8,5 7 4 14 8 W 1026,7 0,0
11.12.2018 04:00:00 10,4 8,5 6 3 9 5 W 1027,0 0,0
11.12.2018 03:00:00 10,5 8,3 3 1 7 4 W 1027,3 0,0
11.12.2018 02:00:00 11,4 9,2 2 1 5 3 W 1027,1 0,0
11.12.2018 01:00:00 11,0 8,5 2 1 5 3 NW 1027,5 -
11.12.2018 00:00:00 11,1 7,8 0 0 0 0 N 1027,8 0,0
10.12.2018 23:00:00 11,7 7,8 0 0 2 1 N 1027,8 0,0
10.12.2018 22:00:00 12,6 7,4 0 0 6 3 NNW 1027,8 0,0
10.12.2018 21:00:00 14,2 8,8 5 3 7 4 NNW 1027,6 0,0
10.12.2018 20:00:00 14,8 9,6 4 2 6 3 NW 1027,4 0,0
10.12.2018 19:00:00 15,9 10,4 0 0 10 6 N 1027,0 -
10.12.2018 18:00:00 17,2 8,9 6 3 21 11 SE 1026,8 0,0
10.12.2018 17:00:00 19,1 7,1 11 6 23 12 SE 1026,6 0,0
10.12.2018 16:00:00 20,8 8,1 12 6 19 10 SE 1026,5 0,0
10.12.2018 15:00:00 21,9 8,0 10 5 15 8 SE 1026,7 0,0
10.12.2018 14:00:00 22,5 10,3 2 1 9 5 SW 1027,3 0,0
10.12.2018 13:00:00 20,6 10,4 5 3 9 5 WSW 1028,2 -
10.12.2018 12:00:00 18,8 10,4 5 3 11 6 WSW 1029,4 0,0
10.12.2018 11:00:00 16,7 10,0 4 2 6 3 WSW 1029,8 0,0
10.12.2018 10:00:00 14,2 9,4 3 1 6 4 W 1029,6 0,0
10.12.2018 09:00:00 11,3 8,0 3 1 6 3 NW 1029,2 0,0
10.12.2018 08:00:00 10,5 7,1 1 0 4 2 NE 1029,0 0,0
10.12.2018 07:00:00 10,6 6,5 0 0 5 3 N 1028,7 -
10.12.2018 06:00:00 11,1 6,4 2 1 10 6 WNW 1028,3 0,0
10.12.2018 05:00:00 11,8 6,7 5 3 10 5 NW 1028,1 0,0
10.12.2018 04:00:00 10,5 7,6 5 3 8 5 W 1028,8 0,0
10.12.2018 03:00:00 11,1 7,8 3 1 10 5 W 1029,2 0,0
10.12.2018 02:00:00 10,7 8,9 6 3 8 5 W 1029,4 0,0
10.12.2018 01:00:00 11,5 10,0 4 2 11 6 WNW 1029,9 -
10.12.2018 00:00:00 11,5 10,0 5 3 8 5 W 1030,1 0,0
09.12.2018 23:00:00 12,0 10,3 4 2 10 6 WNW 1029,8 0,0
09.12.2018 22:00:00 13,2 11,2 6 3 10 5 W 1029,8 0,0
09.12.2018 21:00:00 13,7 11,8 1 1 6 3 N 1029,8 0,0
09.12.2018 20:00:00 14,3 11,8 2 1 3 2 W 1029,4 0,0
09.12.2018 19:00:00 15,6 12,1 0 0 5 3 N 1029,2 -
09.12.2018 18:00:00 16,9 11,6 4 2 8 5 SSE 1029,0 0,0
09.12.2018 17:00:00 18,5 11,8 5 3 10 6 SSE 1028,8 0,0
09.12.2018 16:00:00 19,2 11,0 6 4 11 6 ESE 1028,7 0,0
09.12.2018 15:00:00 20,1 10,8 6 3 11 6 SSE 1028,8 0,0
09.12.2018 14:00:00 21,3 10,4 8 4 12 6 SSE 1029,3 0,0
09.12.2018 13:00:00 20,7 10,5 5 3 9 5 SW 1030,2 -
09.12.2018 12:00:00 19,2 11,4 6 4 10 5 WSW 1031,3 0,0
09.12.2018 11:00:00 16,4 12,1 7 4 12 6 WSW 1032,2 0,0
09.12.2018 10:00:00 13,4 10,5 8 4 13 7 W 1031,9 0,0
09.12.2018 09:00:00 12,0 9,6 8 4 16 8 WNW 1031,8 0,0
09.12.2018 08:00:00 10,5 8,8 5 3 16 8 WNW 1031,8 0,0
09.12.2018 07:00:00 10,8 8,4 10 6 14 8 W 1031,5 -
09.12.2018 06:00:00 11,7 9,4 5 3 12 6 NW 1030,9 0,0
09.12.2018 05:00:00 12,0 9,6 7 4 13 7 WNW 1031,1 0,0
09.12.2018 04:00:00 11,9 9,9 8 4 15 8 WNW 1031,5 0,0
09.12.2018 03:00:00 11,3 9,6 7 4 11 6 W 1031,3 0,0
09.12.2018 02:00:00 11,5 9,8 4 2 9 5 W 1031,0 0,0
09.12.2018 01:00:00 12,2 10,4 6 3 9 5 WNW 1031,3 -
09.12.2018 00:00:00 12,3 10,4 3 2 8 5 W 1031,3 0,0
08.12.2018 23:00:00 13,2 10,4 3 1 8 5 NW 1031,0 0,0
08.12.2018 22:00:00 14,0 11,1 5 3 8 5 NNW 1030,6 0,0
08.12.2018 21:00:00 14,1 11,1 1 1 5 3 NNW 1030,1 0,0
08.12.2018 20:00:00 15,2 11,6 3 2 5 3 N 1029,7 0,0
08.12.2018 19:00:00 16,1 11,7 2 1 8 5 ESE 1029,3 -
08.12.2018 18:00:00 17,0 11,7 4 2 14 7 ESE 1028,6 0,0
08.12.2018 17:00:00 18,0 11,8 9 5 20 11 SE 1028,1 0,0
08.12.2018 16:00:00 19,4 11,7 11 6 24 13 ESE 1027,4 0,0
08.12.2018 15:00:00 18,8 12,5 16 9 27 15 E 1027,3 0,0
08.12.2018 14:00:00 19,5 13,3 11 6 25 14 E 1027,2 0,0
08.12.2018 13:00:00 22,4 8,5 21 12 30 16 WSW 1026,8 -
08.12.2018 12:00:00 21,2 8,1 16 9 34 19 W 1027,2 0,0
08.12.2018 11:00:00 19,1 8,4 19 11 35 19 W 1027,5 0,0
08.12.2018 10:00:00 17,4 8,5 14 8 26 14 W 1027,3 0,0
08.12.2018 09:00:00 16,2 8,0 19 10 32 17 WNW 1027,2 0,0
08.12.2018 08:00:00 15,5 7,6 14 7 23 13 WNW 1026,9 0,0
08.12.2018 07:00:00 15,4 8,0 11 6 17 9 NW 1026,6 -
08.12.2018 06:00:00 14,9 7,7 7 4 15 8 WNW 1026,7 0,0
08.12.2018 05:00:00 15,5 7,6 9 5 22 12 NW 1026,7 0,0
08.12.2018 04:00:00 15,3 7,8 11 6 26 14 W 1027,2 0,0
08.12.2018 03:00:00 15,5 8,0 16 9 28 15 W 1027,3 0,0
08.12.2018 02:00:00 15,3 8,5 14 7 28 15 W 1027,5 0,0
08.12.2018 01:00:00 15,7 7,7 15 8 27 15 W 1027,8 -
08.12.2018 00:00:00 13,7 8,4 11 6 17 9 W 1028,3 0,0
07.12.2018 23:00:00 13,5 11,2 7 4 14 8 WNW 1028,4 0,0
07.12.2018 22:00:00 12,5 11,6 4 2 9 5 NNW 1028,4 0,0
07.12.2018 21:00:00 12,7 11,4 3 1 5 3 N 1028,9 0,0
07.12.2018 20:00:00 13,4 12,1 1 0 9 5 ENE 1028,8 0,0
07.12.2018 19:00:00 13,8 12,3 6 3 14 8 E 1028,4 -
07.12.2018 18:00:00 14,4 11,9 7 4 11 6 ESE 1027,9 0,0
07.12.2018 17:00:00 16,3 12,2 4 2 9 5 SSE 1027,6 0,0
07.12.2018 16:00:00 16,6 11,9 5 3 14 7 SE 1027,8 0,0
07.12.2018 15:00:00 16,6 11,9 9 5 18 10 ESE 1028,0 0,0
07.12.2018 14:00:00 16,7 13,1 5 3 14 7 S 1028,8 0,0
07.12.2018 13:00:00 15,8 12,2 8 4 14 8 SSE 1029,3 -
07.12.2018 12:00:00 15,4 14,6 4 2 10 6 SSE 1030,0 0,0
07.12.2018 11:00:00 11,8 11,3 1 1 6 3 SE 1030,3 0,0
07.12.2018 10:00:00 11,0 10,5 2 1 5 3 W 1030,2 0,0
07.12.2018 09:00:00 11,1 10,6 3 2 6 3 N 1029,9 0,0
07.12.2018 08:00:00 11,6 11,1 1 1 8 4 N 1029,3 0,0
07.12.2018 07:00:00 10,1 9,7 1 0 4 2 ENE 1029,0 -
07.12.2018 06:00:00 9,8 9,3 0 0 8 5 SSW 1028,6 0,0
07.12.2018 05:00:00 10,3 9,8 5 3 14 8 W 1028,4 0,0
07.12.2018 04:00:00 11,2 10,8 6 3 13 7 WNW 1028,4 0,0
07.12.2018 03:00:00 11,5 11,0 8 5 15 8 WNW 1028,4 0,0
07.12.2018 02:00:00 12,8 12,3 8 5 14 8 WNW 1028,2 0,0
07.12.2018 01:00:00 13,3 12,6 5 3 14 7 NW 1028,6 -
07.12.2018 00:00:00 13,7 13,0 5 3 12 7 NW 1028,6 0,0
06.12.2018 23:00:00 14,3 13,4 6 3 10 5 NNE 1028,8 0,0
06.12.2018 22:00:00 14,8 13,9 4 2 11 6 E 1028,5 0,0
06.12.2018 21:00:00 15,1 14,1 5 3 13 7 ENE 1028,2 0,0
06.12.2018 20:00:00 15,1 14,1 4 2 9 5 E 1027,8 0,0
06.12.2018 19:00:00 15,5 14,5 2 1 10 5 ESE 1027,3 -
06.12.2018 18:00:00 15,8 13,5 8 4 11 6 SE 1026,7 0,0
06.12.2018 17:00:00 17,7 14,0 8 4 11 6 SE 1026,1 0,0
06.12.2018 16:00:00 18,2 14,1 7 4 11 6 SE 1026,0 0,0
06.12.2018 15:00:00 18,3 14,2 8 5 14 8 SE 1026,4 0,0
06.12.2018 14:00:00 18,5 13,8 8 4 13 7 SE 1026,9 0,0
06.12.2018 13:00:00 18,8 12,1 8 4 12 7 ESE 1027,5 -
06.12.2018 12:00:00 - - 4 2 9 5 SSE - 0,0
06.12.2018 11:00:00 17,7 11,0 3 2 6 3 SW 1028,7 0,0
06.12.2018 10:00:00 15,2 10,4 2 1 4 2 WSW 1028,5 0,0
06.12.2018 09:00:00 11,6 9,3 0 0 6 3 N 1028,3 0,0
06.12.2018 08:00:00 11,2 8,9 0 0 6 3 N 1027,6 0,0
06.12.2018 07:00:00 11,2 8,4 0 0 9 5 NNE 1027,0 -
06.12.2018 06:00:00 12,0 9,2 5 3 10 6 WNW 1026,6 0,0
06.12.2018 05:00:00 11,6 9,3 6 3 11 6 W 1026,8 0,0
06.12.2018 04:00:00 11,8 9,9 5 3 13 7 NW 1026,9 0,0
06.12.2018 03:00:00 11,7 9,3 9 5 12 7 W 1026,9 0,0
06.12.2018 02:00:00 12,2 9,2 5 3 11 6 W 1027,1 0,0
06.12.2018 01:00:00 12,0 9,2 3 1 13 7 WNW 1027,8 -
06.12.2018 00:00:00 12,9 9,9 6 3 11 6 NNW 1027,9 0,0

tt = temperature
td = dewpoint
ff = wind speed
fx = gusts
dd = wind direction
ppp = reduced air pressure
rr = precipitation

Next stations